createdAt,value
2018-09-04T00:00:42.972Z,53.01
2018-09-04T00:03:08.921Z,51.63
2018-09-04T00:05:34.839Z,53.32
2018-09-04T00:08:00.900Z,53.01
2018-09-04T00:10:26.875Z,52.48
2018-09-04T00:12:52.813Z,52.43
2018-09-04T00:15:18.747Z,52.41
2018-09-04T00:17:44.701Z,52.30
2018-09-04T00:20:10.624Z,52.60
2018-09-04T00:22:36.572Z,52.75
2018-09-04T00:25:02.497Z,52.39
2018-09-04T00:27:28.498Z,52.43
2018-09-04T00:29:54.392Z,52.88
2018-09-04T00:32:20.338Z,52.57
2018-09-04T00:34:46.270Z,53.67
2018-09-04T00:37:12.198Z,53.52
2018-09-04T00:39:38.155Z,52.34
2018-09-04T00:42:04.085Z,51.98
2018-09-04T00:44:30.049Z,52.54
2018-09-04T00:46:55.989Z,54.02
2018-09-04T00:49:21.931Z,52.30
2018-09-04T00:51:47.857Z,51.83
2018-09-04T00:54:13.798Z,52.68
2018-09-04T00:56:39.728Z,52.27
2018-09-04T00:59:05.750Z,52.58
2018-09-04T01:01:31.636Z,53.50
2018-09-04T01:03:57.632Z,51.99
2018-09-04T01:06:23.576Z,52.78
2018-09-04T01:08:49.528Z,53.46
2018-09-04T01:11:15.487Z,52.68
2018-09-04T01:13:41.416Z,53.82
2018-09-04T01:16:07.616Z,54.19
2018-09-04T01:18:33.552Z,54.00
2018-09-04T01:20:59.480Z,53.72
2018-09-04T01:23:25.423Z,52.37
2018-09-04T01:25:51.371Z,53.86
2018-09-04T01:28:17.304Z,53.33
2018-09-04T01:30:43.220Z,53.43
2018-09-04T01:33:09.169Z,53.40
2018-09-04T01:35:35.109Z,52.83
2018-09-04T01:38:01.063Z,52.45
2018-09-04T01:40:27.050Z,52.49
2018-09-04T01:42:52.996Z,51.36
2018-09-04T01:45:18.948Z,51.37
2018-09-04T01:47:44.884Z,53.17
2018-09-04T01:50:10.864Z,53.74
2018-09-04T01:52:36.841Z,51.95
2018-09-04T01:55:02.777Z,53.38
2018-09-04T01:57:28.734Z,52.04
2018-09-04T01:59:54.685Z,52.00
2018-09-04T02:02:20.645Z,52.54
2018-09-04T02:04:46.594Z,51.95
2018-09-04T02:07:12.560Z,52.19
2018-09-04T02:09:38.489Z,53.42
2018-09-04T02:12:04.461Z,52.71
2018-09-04T02:14:30.401Z,52.26
2018-09-04T02:16:56.360Z,53.17
2018-09-04T02:19:22.300Z,52.34
2018-09-04T02:21:48.241Z,52.75
2018-09-04T02:24:14.219Z,52.61
2018-09-04T02:26:40.213Z,52.88
2018-09-04T02:29:06.144Z,52.85
2018-09-04T02:31:32.100Z,52.81
2018-09-04T02:33:58.060Z,52.78
2018-09-04T02:36:24.004Z,53.74
2018-09-04T02:38:49.956Z,51.82
2018-09-04T02:41:15.941Z,52.55
2018-09-04T02:43:41.861Z,52.18
2018-09-04T02:46:07.808Z,52.24
2018-09-04T02:48:33.771Z,52.57
2018-09-04T02:50:59.704Z,53.68
2018-09-04T02:53:25.651Z,52.74
2018-09-04T02:55:51.603Z,52.45
2018-09-04T02:58:17.571Z,52.94
2018-09-04T03:00:43.553Z,53.44
2018-09-04T03:03:09.515Z,53.35
2018-09-04T03:05:35.464Z,53.23
2018-09-04T03:08:01.433Z,53.80
2018-09-04T03:10:27.377Z,54.69
2018-09-04T03:12:53.313Z,53.59
2018-09-04T03:15:19.311Z,53.32
2018-09-04T03:17:45.281Z,53.06
2018-09-04T03:20:11.227Z,53.83
2018-09-04T03:22:37.208Z,53.60
2018-09-04T03:27:35.554Z,53.91
2018-09-04T03:30:01.477Z,52.79
2018-09-04T03:32:27.461Z,53.42
2018-09-04T03:34:53.482Z,54.26
2018-09-04T03:37:19.486Z,54.01
2018-09-04T03:39:45.458Z,53.53
2018-09-04T03:42:11.493Z,53.88
2018-09-04T03:44:37.441Z,53.50
2018-09-04T03:47:03.425Z,54.47
2018-09-04T03:49:29.388Z,52.75
2018-09-04T03:51:55.420Z,53.03
2018-09-04T03:54:21.393Z,53.63
2018-09-04T03:56:47.338Z,52.75
2018-09-04T03:59:13.332Z,53.18
2018-09-04T04:01:39.339Z,53.22
2018-09-04T04:04:05.325Z,53.45
2018-09-04T04:06:31.256Z,52.77
2018-09-04T04:08:57.235Z,53.19
2018-09-04T04:11:23.171Z,53.73
2018-09-04T04:13:49.114Z,52.95
2018-09-04T04:16:15.086Z,54.07
2018-09-04T04:18:41.087Z,52.61
2018-09-04T04:21:07.043Z,53.77
2018-09-04T04:23:33.008Z,53.99
2018-09-04T04:25:58.966Z,53.04
2018-09-04T04:28:24.923Z,54.11
2018-09-04T04:30:50.875Z,54.17
2018-09-04T04:33:16.826Z,53.72
2018-09-04T04:35:42.780Z,54.66
2018-09-04T04:38:08.759Z,54.31
2018-09-04T04:40:34.724Z,53.40
2018-09-04T04:43:00.688Z,53.63
2018-09-04T04:45:26.644Z,53.35
2018-09-04T04:47:52.703Z,53.63
2018-09-04T04:50:18.692Z,52.33
2018-09-04T04:52:44.654Z,53.57
2018-09-04T04:55:10.608Z,55.00
2018-09-04T04:57:36.547Z,53.27
2018-09-04T05:00:02.507Z,54.01
2018-09-04T05:02:28.463Z,53.50
2018-09-04T05:04:54.447Z,52.85
2018-09-04T05:07:20.400Z,52.46
2018-09-04T05:09:47.356Z,52.61
2018-09-04T05:12:13.324Z,53.17
2018-09-04T05:14:39.289Z,53.07
2018-09-04T05:17:05.267Z,53.43
2018-09-04T05:19:31.225Z,54.11
2018-09-04T05:21:57.211Z,53.75
2018-09-04T05:24:23.172Z,53.47
2018-09-04T05:26:49.129Z,53.76
2018-09-04T05:29:15.237Z,53.28
2018-09-04T05:31:41.150Z,52.71
2018-09-04T05:34:07.231Z,53.29
2018-09-04T05:36:33.192Z,52.74
2018-09-04T05:38:59.152Z,53.17
2018-09-04T05:41:25.112Z,52.88
2018-09-04T05:43:51.100Z,52.28
2018-09-04T05:46:17.047Z,53.09
2018-09-04T05:48:43.067Z,52.29
2018-09-04T05:51:09.005Z,51.42
2018-09-04T05:53:35.072Z,51.27
2018-09-04T05:56:01.030Z,50.10
2018-09-04T05:58:26.966Z,50.07
2018-09-04T06:00:52.901Z,49.99
2018-09-04T06:03:18.848Z,50.21
2018-09-04T06:05:44.824Z,49.88
2018-09-04T06:08:10.814Z,49.13
2018-09-04T06:10:36.785Z,48.96
2018-09-04T06:13:02.738Z,48.11
2018-09-04T06:15:28.689Z,48.70
2018-09-04T06:17:54.638Z,47.54
2018-09-04T06:20:20.566Z,46.87
2018-09-04T06:22:46.510Z,47.30
2018-09-04T06:25:12.440Z,48.48
2018-09-04T06:27:39.443Z,47.43
2018-09-04T06:30:05.436Z,47.52
2018-09-04T06:32:31.388Z,47.88
2018-09-04T06:34:57.353Z,47.67
2018-09-04T06:37:23.306Z,47.36
2018-09-04T06:39:49.287Z,47.68
2018-09-04T06:42:15.255Z,48.30
2018-09-04T06:44:41.238Z,48.11
2018-09-04T06:47:07.204Z,48.41
2018-09-04T06:49:33.187Z,47.69
2018-09-04T06:51:59.187Z,47.41
2018-09-04T06:54:25.187Z,46.96
2018-09-04T06:56:51.176Z,47.43
2018-09-04T06:59:17.128Z,47.37
2018-09-04T07:01:43.076Z,47.46
2018-09-04T07:04:09.019Z,47.60
2018-09-04T07:06:34.967Z,47.97
2018-09-04T07:09:00.941Z,46.52
2018-09-04T07:11:26.875Z,46.65
2018-09-04T07:13:53.943Z,47.20
2018-09-04T07:16:19.926Z,46.58
2018-09-04T07:18:45.865Z,47.58
2018-09-04T07:23:44.188Z,46.08
2018-09-04T07:26:10.128Z,47.36
2018-09-04T07:28:36.117Z,46.40
2018-09-04T07:31:02.062Z,46.92
2018-09-04T07:33:28.013Z,46.01
2018-09-04T07:35:53.965Z,46.23
2018-09-04T07:38:19.912Z,45.78
2018-09-04T07:40:45.853Z,45.75
2018-09-04T07:43:12.788Z,45.26
2018-09-04T07:45:38.748Z,45.17
2018-09-04T07:48:04.685Z,45.55
2018-09-04T07:50:30.612Z,44.54
2018-09-04T07:52:56.536Z,45.65
2018-09-04T07:55:22.511Z,45.93
2018-09-04T07:57:48.450Z,46.15
2018-09-04T08:00:14.405Z,45.91
2018-09-04T08:02:40.338Z,46.26
2018-09-04T08:05:06.269Z,45.73
2018-09-04T08:07:32.213Z,45.59
2018-09-04T08:09:58.193Z,44.85
2018-09-04T08:12:24.164Z,45.08
2018-09-04T08:14:50.106Z,44.76
2018-09-04T08:17:16.085Z,45.82
2018-09-04T08:19:42.048Z,45.37
2018-09-04T08:22:08.022Z,45.84
2018-09-04T08:24:33.966Z,44.66
2018-09-04T08:26:59.927Z,44.96
2018-09-04T08:29:25.899Z,45.89
2018-09-04T08:31:51.882Z,44.42
2018-09-04T08:34:17.844Z,44.65
2018-09-04T08:36:43.803Z,45.11
2018-09-04T08:39:09.748Z,44.73
2018-09-04T08:41:35.702Z,45.24
2018-09-04T08:44:01.634Z,45.62
2018-09-04T08:46:27.600Z,46.01
2018-09-04T08:48:53.561Z,45.70
2018-09-04T08:51:19.526Z,45.22
2018-09-04T08:53:45.476Z,44.98
2018-09-04T08:56:11.444Z,45.54
2018-09-04T08:58:37.443Z,46.25
2018-09-04T09:01:03.388Z,45.50
2018-09-04T09:03:29.383Z,46.40
2018-09-04T09:05:55.401Z,46.14
2018-09-04T09:08:21.445Z,45.96
2018-09-04T09:10:47.458Z,45.91
2018-09-04T09:13:13.415Z,47.10
2018-09-04T09:15:39.372Z,47.08
2018-09-04T09:18:05.324Z,47.00
2018-09-04T09:20:33.487Z,47.24
2018-09-04T09:22:59.515Z,47.04
2018-09-04T09:25:25.413Z,46.07
2018-09-04T09:27:51.418Z,47.51
2018-09-04T09:30:17.360Z,46.88
2018-09-04T09:32:43.313Z,47.45
2018-09-04T09:35:09.370Z,47.92
2018-09-04T09:37:35.329Z,47.34
2018-09-04T09:40:02.329Z,46.67
2018-09-04T09:42:28.373Z,46.97
2018-09-04T09:44:54.329Z,47.33
2018-09-04T09:47:20.296Z,47.32
2018-09-04T09:49:46.252Z,47.39
2018-09-04T09:52:12.218Z,46.84
2018-09-04T09:54:38.172Z,46.54
2018-09-04T09:57:04.151Z,46.95
2018-09-04T09:59:30.164Z,47.61
2018-09-04T10:01:56.117Z,47.19
2018-09-04T10:04:22.078Z,46.98
2018-09-04T10:06:48.033Z,46.74
2018-09-04T10:09:13.974Z,46.82
2018-09-04T10:11:39.909Z,47.60
2018-09-04T10:14:05.880Z,48.48
2018-09-04T10:16:31.848Z,48.06
2018-09-04T10:18:57.814Z,47.90
2018-09-04T10:21:23.791Z,47.04
2018-09-04T10:23:49.727Z,47.26
2018-09-04T10:26:15.661Z,47.26
2018-09-04T10:28:41.646Z,47.33
2018-09-04T10:31:07.585Z,47.40
2018-09-04T10:33:33.550Z,46.78
2018-09-04T10:35:59.493Z,47.35
2018-09-04T10:38:25.455Z,46.90
2018-09-04T10:40:51.407Z,46.88
2018-09-04T10:43:17.390Z,47.42
2018-09-04T10:45:43.365Z,47.24
2018-09-04T10:48:09.319Z,47.01
2018-09-04T10:50:35.260Z,46.17
2018-09-04T10:53:01.223Z,46.67
2018-09-04T10:55:27.153Z,47.12
2018-09-04T10:57:53.197Z,46.45
2018-09-04T11:00:19.069Z,46.58
2018-09-04T11:02:45.029Z,46.81
2018-09-04T11:05:10.958Z,48.00
2018-09-04T11:07:36.913Z,47.20
2018-09-04T11:10:03.098Z,46.82
2018-09-04T11:12:28.887Z,47.59
2018-09-04T11:14:54.844Z,47.61
2018-09-04T11:17:20.796Z,48.27
2018-09-04T11:19:46.760Z,48.43
2018-09-04T11:22:12.728Z,47.43
2018-09-04T11:24:38.747Z,47.23
2018-09-04T11:27:04.691Z,47.28
2018-09-04T11:29:30.657Z,47.52
2018-09-04T11:31:56.665Z,47.24
2018-09-04T11:34:22.637Z,46.65
2018-09-04T11:36:48.608Z,46.75
2018-09-04T11:39:14.584Z,46.37
2018-09-04T11:41:40.549Z,46.01
2018-09-04T11:44:06.528Z,46.40
2018-09-04T11:46:32.482Z,45.54
2018-09-04T11:48:58.440Z,45.56
2018-09-04T11:51:24.374Z,46.68
2018-09-04T11:53:50.346Z,46.23
2018-09-04T11:56:16.314Z,46.77
2018-09-04T11:58:42.276Z,47.19
2018-09-04T12:01:08.237Z,46.05
2018-09-04T12:03:34.193Z,46.15
2018-09-04T12:06:00.144Z,46.28
2018-09-04T12:08:26.108Z,45.61
2018-09-04T12:10:52.063Z,46.08
2018-09-04T12:13:18.105Z,45.37
2018-09-04T12:15:43.995Z,45.46
2018-09-04T12:18:09.976Z,45.12
2018-09-04T12:20:35.912Z,44.20
2018-09-04T12:23:01.876Z,44.51
2018-09-04T12:25:27.848Z,45.44
2018-09-04T12:27:53.788Z,45.35
2018-09-04T12:30:19.734Z,44.84
2018-09-04T12:32:45.729Z,43.72
2018-09-04T12:35:11.671Z,44.79
2018-09-04T12:37:37.630Z,44.35
2018-09-04T12:40:03.582Z,45.08
2018-09-04T12:42:29.562Z,44.58
2018-09-04T12:44:55.525Z,45.21
2018-09-04T12:47:21.633Z,45.11
2018-09-04T12:49:47.592Z,44.46
2018-09-04T12:52:13.613Z,44.89
2018-09-04T12:54:39.640Z,44.20
2018-09-04T12:57:05.591Z,43.93
2018-09-04T12:59:31.588Z,43.91
2018-09-04T13:01:57.541Z,43.82
2018-09-04T13:04:23.527Z,43.71
2018-09-04T13:06:49.510Z,43.03
2018-09-04T13:09:15.563Z,43.75
2018-09-04T13:11:41.545Z,43.09
2018-09-04T13:14:07.498Z,42.13
2018-09-04T13:16:33.454Z,42.69
2018-09-04T13:18:59.423Z,42.99
2018-09-04T13:21:25.390Z,43.29
2018-09-04T13:23:51.348Z,42.46
2018-09-04T13:26:17.304Z,42.47
2018-09-04T13:28:43.276Z,42.75
2018-09-04T13:31:09.207Z,41.71
2018-09-04T13:33:35.155Z,42.00
2018-09-04T13:36:01.111Z,42.09
2018-09-04T13:38:27.082Z,41.86
2018-09-04T13:40:53.026Z,41.84
2018-09-04T13:43:18.986Z,41.37
2018-09-04T13:45:44.947Z,41.22
2018-09-04T13:48:10.923Z,41.70
2018-09-04T13:50:36.883Z,42.04
2018-09-04T13:53:02.828Z,41.13
2018-09-04T13:55:28.784Z,41.62
2018-09-04T13:57:54.733Z,41.47
2018-09-04T14:00:20.703Z,41.69
2018-09-04T14:02:46.651Z,41.81
2018-09-04T14:05:12.597Z,41.65
2018-09-04T14:07:38.566Z,42.11
2018-09-04T14:10:04.532Z,42.59
2018-09-04T14:12:30.495Z,41.22
2018-09-04T14:14:56.468Z,41.49
2018-09-04T14:17:22.449Z,40.94
2018-09-04T14:19:48.402Z,40.10
2018-09-04T14:22:14.356Z,40.50
2018-09-04T14:24:40.331Z,41.04
2018-09-04T14:27:06.274Z,41.11
2018-09-04T14:30:24.521Z,39.95
2018-09-04T14:31:58.235Z,40.78
2018-09-04T14:34:24.195Z,40.91
2018-09-04T14:36:50.328Z,40.04
2018-09-04T14:39:16.132Z,40.98
2018-09-04T14:41:42.104Z,41.61
2018-09-04T14:44:08.078Z,41.29
2018-09-04T14:46:34.038Z,40.69
2018-09-04T14:49:00.003Z,40.76
2018-09-04T14:51:25.971Z,40.39
2018-09-04T14:53:51.944Z,41.31
2018-09-04T14:56:17.918Z,41.06
2018-09-04T14:58:43.850Z,41.03
2018-09-04T15:01:09.824Z,41.27
2018-09-04T15:03:35.781Z,40.81
2018-09-04T15:06:01.809Z,40.58
2018-09-04T15:08:27.724Z,41.09
2018-09-04T15:10:53.685Z,40.66
2018-09-04T15:13:19.638Z,40.31
2018-09-04T15:15:45.768Z,41.04
2018-09-04T15:18:11.737Z,41.04
2018-09-04T15:20:37.705Z,40.66
2018-09-04T15:23:03.682Z,39.83
2018-09-04T15:25:29.685Z,40.41
2018-09-04T15:27:56.818Z,40.95
2018-09-04T15:30:22.788Z,40.67
2018-09-04T15:32:48.790Z,40.00
2018-09-04T15:35:14.765Z,40.46
2018-09-04T15:37:40.723Z,40.41
2018-09-04T15:40:06.691Z,39.89
2018-09-04T15:42:32.677Z,40.73
2018-09-04T15:44:58.636Z,40.40
2018-09-04T15:47:24.603Z,39.43
2018-09-04T15:49:50.556Z,39.71
2018-09-04T15:52:16.516Z,39.09
2018-09-04T15:54:42.482Z,40.21
2018-09-04T15:57:08.439Z,40.16
2018-09-04T15:59:34.378Z,40.95
2018-09-04T16:02:00.406Z,40.11
2018-09-04T16:04:26.395Z,40.11
2018-09-04T16:06:52.329Z,39.94
2018-09-04T16:09:18.311Z,38.54
2018-09-04T16:11:44.294Z,38.68
2018-09-04T16:14:10.330Z,38.82
2018-09-04T16:16:36.265Z,37.45
2018-09-04T16:19:02.259Z,38.56
2018-09-04T16:21:28.255Z,37.96
2018-09-04T16:23:54.218Z,38.53
2018-09-04T16:26:20.235Z,38.66
2018-09-04T16:28:46.258Z,38.28
2018-09-04T16:31:12.245Z,39.22
2018-09-04T16:33:38.233Z,39.83
2018-09-04T16:36:04.223Z,39.76
2018-09-04T16:38:30.229Z,39.00
2018-09-04T16:40:56.170Z,39.80
2018-09-04T16:43:22.126Z,39.08
2018-09-04T16:45:48.074Z,40.13
2018-09-04T16:48:14.013Z,39.47
2018-09-04T16:50:39.999Z,39.50
2018-09-04T16:53:05.963Z,39.96
2018-09-04T16:55:31.929Z,40.76
2018-09-04T16:57:57.914Z,41.11
2018-09-04T17:00:23.914Z,41.11
2018-09-04T17:02:50.016Z,40.24
2018-09-04T17:05:15.978Z,40.98
2018-09-04T17:07:41.964Z,40.33
2018-09-04T17:10:08.431Z,40.57
2018-09-04T17:12:34.477Z,40.39
2018-09-04T17:15:00.430Z,40.11
2018-09-04T17:17:26.384Z,40.26
2018-09-04T17:19:52.354Z,39.72
2018-09-04T17:22:18.323Z,40.54
2018-09-04T17:24:44.311Z,40.02
2018-09-04T17:27:10.329Z,40.42
2018-09-04T17:29:36.294Z,40.34
2018-09-04T17:32:02.305Z,40.47
2018-09-04T17:34:28.276Z,39.62
2018-09-04T17:36:54.242Z,40.01
2018-09-04T17:39:20.201Z,40.47
2018-09-04T17:41:46.139Z,39.74
2018-09-04T17:44:12.102Z,40.02
2018-09-04T17:46:38.070Z,39.60
2018-09-04T17:49:04.162Z,40.06
2018-09-04T17:51:30.145Z,40.29
2018-09-04T17:53:56.098Z,39.64
2018-09-04T17:56:22.064Z,39.45
2018-09-04T17:58:48.039Z,39.81
2018-09-04T18:01:13.993Z,40.42
2018-09-04T18:03:40.092Z,39.91
2018-09-04T18:06:06.027Z,39.79
2018-09-04T18:08:31.988Z,40.79
2018-09-04T18:10:57.982Z,40.75
2018-09-04T18:13:23.960Z,39.99
2018-09-04T18:15:49.910Z,40.44
2018-09-04T18:18:15.878Z,41.19
2018-09-04T18:20:41.859Z,40.85
2018-09-04T18:23:07.830Z,40.97
2018-09-04T18:25:33.778Z,42.20
2018-09-04T18:27:59.772Z,42.13
2018-09-04T18:30:25.706Z,43.23
2018-09-04T18:32:51.667Z,42.64
2018-09-04T18:35:17.625Z,42.85
2018-09-04T18:37:43.562Z,43.05
2018-09-04T18:40:09.528Z,43.21
2018-09-04T18:42:35.490Z,43.01
2018-09-04T18:45:01.457Z,43.75
2018-09-04T18:47:27.449Z,43.71
2018-09-04T18:49:53.421Z,43.59
2018-09-04T18:52:19.377Z,43.96
2018-09-04T18:54:45.406Z,43.94
2018-09-04T18:57:11.369Z,44.25
2018-09-04T18:59:37.390Z,44.69
2018-09-04T19:02:03.312Z,43.43
2018-09-04T19:04:29.285Z,43.99
2018-09-04T19:06:55.265Z,43.51
2018-09-04T19:09:21.276Z,43.94
2018-09-04T19:11:47.249Z,43.48
2018-09-04T19:14:13.254Z,44.43
2018-09-04T19:16:39.200Z,43.82
2018-09-04T19:19:05.152Z,43.40
2018-09-04T19:21:31.091Z,44.56
2018-09-04T19:23:57.192Z,44.25
2018-09-04T19:26:23.145Z,44.56
2018-09-04T19:28:49.114Z,44.22
2018-09-04T19:31:15.058Z,44.56
2018-09-04T19:33:41.118Z,44.27
2018-09-04T19:36:07.071Z,44.04
2018-09-04T19:38:33.092Z,45.21
2018-09-04T19:40:59.054Z,44.87
2018-09-04T19:43:25.039Z,45.34
2018-09-04T19:45:51.035Z,44.98
2018-09-04T19:48:17.004Z,44.80
2018-09-04T19:50:43.003Z,44.53
2018-09-04T19:53:08.951Z,45.07
2018-09-04T19:55:35.979Z,44.03
2018-09-04T19:58:01.993Z,44.77
2018-09-04T20:00:28.037Z,43.84
2018-09-04T20:02:53.976Z,44.84
2018-09-04T20:05:19.937Z,43.89
2018-09-04T20:07:45.994Z,44.38
2018-09-04T20:10:11.963Z,45.08
2018-09-04T20:12:37.917Z,45.54
2018-09-04T20:15:03.916Z,45.15
2018-09-04T20:17:29.986Z,44.88
2018-09-04T20:19:55.960Z,44.71
2018-09-04T20:22:21.907Z,46.42
2018-09-04T20:24:47.923Z,45.99
2018-09-04T20:27:13.893Z,45.40
2018-09-04T20:29:39.882Z,45.87
2018-09-04T20:32:05.812Z,46.02
2018-09-04T20:34:31.780Z,46.05
2018-09-04T20:36:57.717Z,46.93
2018-09-04T20:39:23.795Z,45.89
2018-09-04T20:41:49.755Z,45.43
2018-09-04T20:44:15.719Z,45.74
2018-09-04T20:46:41.692Z,45.93
2018-09-04T20:49:07.633Z,46.01
2018-09-04T20:51:33.697Z,46.56
2018-09-04T20:53:59.691Z,45.51
2018-09-04T20:56:25.662Z,45.98
2018-09-04T20:58:51.620Z,46.69
2018-09-04T21:01:17.667Z,45.22
2018-09-04T21:03:43.727Z,46.77
2018-09-04T21:06:09.739Z,45.29
2018-09-04T21:08:35.755Z,45.63
2018-09-04T21:11:01.771Z,45.35
2018-09-04T21:13:27.861Z,45.62
2018-09-04T21:15:53.870Z,46.33
2018-09-04T21:18:19.890Z,45.01
2018-09-04T21:20:45.937Z,44.23
2018-09-04T21:23:11.943Z,44.13
2018-09-04T21:25:38.063Z,44.51
2018-09-04T21:28:04.072Z,44.27
2018-09-04T21:30:30.190Z,44.85
2018-09-04T21:32:56.208Z,45.50
2018-09-04T21:35:22.213Z,44.59
2018-09-04T21:37:48.235Z,45.74
2018-09-04T21:40:14.240Z,45.63
2018-09-04T21:42:40.257Z,44.86
2018-09-04T21:45:06.278Z,44.82
2018-09-04T21:47:32.278Z,45.75
2018-09-04T21:49:58.286Z,45.64
2018-09-04T21:52:24.312Z,45.12
2018-09-04T21:54:50.300Z,45.43
2018-09-04T21:57:16.345Z,46.64
2018-09-04T21:59:42.333Z,45.80
2018-09-04T22:02:08.362Z,45.86
2018-09-04T22:04:34.376Z,46.00
2018-09-04T22:07:00.384Z,46.00
2018-09-04T22:09:26.397Z,45.37
2018-09-04T22:11:52.405Z,45.49
2018-09-04T22:14:18.376Z,45.54
2018-09-04T22:16:44.396Z,45.61
2018-09-04T22:19:10.386Z,45.98
2018-09-04T22:21:36.420Z,45.64
2018-09-04T22:24:02.420Z,45.32
2018-09-04T22:26:28.436Z,45.39
2018-09-04T22:28:54.439Z,45.26
2018-09-04T22:31:20.411Z,47.07
2018-09-04T22:33:46.407Z,46.38
2018-09-04T22:36:12.390Z,45.96
2018-09-04T22:38:38.380Z,46.73
2018-09-04T22:41:04.381Z,45.55
2018-09-04T22:43:30.387Z,46.03
2018-09-04T22:45:56.391Z,46.26
2018-09-04T22:48:22.408Z,46.10
2018-09-04T22:50:48.409Z,46.66
2018-09-04T22:53:14.424Z,46.83
2018-09-04T22:55:40.426Z,46.89
2018-09-04T22:58:06.497Z,46.03
2018-09-04T23:00:32.459Z,46.09
2018-09-04T23:02:58.450Z,46.70
2018-09-04T23:05:24.462Z,47.25
2018-09-04T23:07:50.464Z,46.66
2018-09-04T23:10:16.460Z,47.02
2018-09-04T23:12:42.464Z,48.64
2018-09-04T23:15:08.471Z,47.29
2018-09-04T23:17:34.467Z,47.30
2018-09-04T23:20:00.582Z,47.32
2018-09-04T23:22:26.580Z,47.64
2018-09-04T23:24:52.596Z,47.07
2018-09-04T23:27:18.648Z,48.14
2018-09-04T23:29:44.657Z,49.28
2018-09-04T23:32:10.645Z,47.70
2018-09-04T23:34:36.644Z,47.67
2018-09-04T23:37:02.680Z,47.69
2018-09-04T23:39:28.697Z,47.84
2018-09-04T23:41:54.695Z,47.16
2018-09-04T23:44:20.695Z,48.71
2018-09-04T23:46:46.681Z,48.43
2018-09-04T23:49:12.680Z,47.25
2018-09-04T23:51:38.662Z,47.20
2018-09-04T23:56:30.483Z,46.97
2018-09-04T23:58:56.481Z,47.26
